Terminal Aerodrome Forecast
Issued by NWS

Home | Current Version | Previous Version | Text Only | Print | Product List | Glossary On
Versions: 1 2 3 4 5 6 7 8 9 10 11 12 13 14 15 16 17 18 19 20 21 22 23 24 25 26 27 28 29 30 31 32 33 34 35
000
FTUS43 KLOT 191900 AAA
TAFDPA
TAF AMD
KDPA 191949Z 1919/2018 18014G21KT P6SM FEW250
     FM200000 19012G17KT P6SM SCT250
     FM201400 22013G22KT P6SM FEW040 SCT150 BKN200=

USA.gov is the U.S. government's official web portal to all federal, state and local government web resources and services.